sensor_id;sensor_type;location;lat;lon;timestamp;temperature;humidity
39017;DHT22;24784;45.582;5.276;2023-09-19T00:00:30;17.90;99.90
39017;DHT22;24784;45.582;5.276;2023-09-19T00:02:57;17.90;99.90
39017;DHT22;24784;45.582;5.276;2023-09-19T00:05:29;17.90;99.90
39017;DHT22;24784;45.582;5.276;2023-09-19T00:07:58;17.90;99.90
39017;DHT22;24784;45.582;5.276;2023-09-19T00:10:27;17.90;99.90
39017;DHT22;24784;45.582;5.276;2023-09-19T00:12:57;17.90;99.90
39017;DHT22;24784;45.582;5.276;2023-09-19T00:15:24;17.80;99.90
39017;DHT22;24784;45.582;5.276;2023-09-19T00:17:51;17.80;99.90
39017;DHT22;24784;45.582;5.276;2023-09-19T00:20:20;17.90;99.90
39017;DHT22;24784;45.582;5.276;2023-09-19T00:22:49;17.90;99.90
39017;DHT22;24784;45.582;5.276;2023-09-19T00:25:22;17.90;99.90
39017;DHT22;24784;45.582;5.276;2023-09-19T00:27:48;17.80;99.90
39017;DHT22;24784;45.582;5.276;2023-09-19T00:30:15;17.90;99.90
39017;DHT22;24784;45.582;5.276;2023-09-19T00:32:45;17.90;99.90
39017;DHT22;24784;45.582;5.276;2023-09-19T00:35:15;17.90;99.90
39017;DHT22;24784;45.582;5.276;2023-09-19T00:37:41;17.80;99.90
39017;DHT22;24784;45.582;5.276;2023-09-19T00:40:08;17.80;99.90
39017;DHT22;24784;45.582;5.276;2023-09-19T00:42:47;17.80;99.90
39017;DHT22;24784;45.582;5.276;2023-09-19T00:45:15;17.90;99.90
39017;DHT22;24784;45.582;5.276;2023-09-19T00:47:46;17.90;99.90
39017;DHT22;24784;45.582;5.276;2023-09-19T00:50:16;17.80;99.90
39017;DHT22;24784;45.582;5.276;2023-09-19T00:52:43;17.80;99.90
39017;DHT22;24784;45.582;5.276;2023-09-19T00:55:10;17.80;99.90
39017;DHT22;24784;45.582;5.276;2023-09-19T00:57:38;17.80;99.90
39017;DHT22;24784;45.582;5.276;2023-09-19T01:00:05;17.80;99.90
39017;DHT22;24784;45.582;5.276;2023-09-19T01:02:33;17.90;99.90
39017;DHT22;24784;45.582;5.276;2023-09-19T01:04:59;17.80;99.90
39017;DHT22;24784;45.582;5.276;2023-09-19T01:07:27;17.80;99.90
39017;DHT22;24784;45.582;5.276;2023-09-19T01:09:56;17.80;99.90
39017;DHT22;24784;45.582;5.276;2023-09-19T01:12:36;17.70;99.90
39017;DHT22;24784;45.582;5.276;2023-09-19T01:15:24;17.70;99.90
39017;DHT22;24784;45.582;5.276;2023-09-19T01:18:07;17.70;99.90
39017;DHT22;24784;45.582;5.276;2023-09-19T01:26:30;17.70;99.90
39017;DHT22;24784;45.582;5.276;2023-09-19T01:32:03;17.80;99.90
39017;DHT22;24784;45.582;5.276;2023-09-19T01:37:16;17.80;99.90
39017;DHT22;24784;45.582;5.276;2023-09-19T01:39:52;17.80;99.90
39017;DHT22;24784;45.582;5.276;2023-09-19T01:42:31;17.80;99.90
39017;DHT22;24784;45.582;5.276;2023-09-19T01:45:11;17.70;99.90
39017;DHT22;24784;45.582;5.276;2023-09-19T01:48:00;17.70;99.90
39017;DHT22;24784;45.582;5.276;2023-09-19T01:50:42;17.80;99.90
39017;DHT22;24784;45.582;5.276;2023-09-19T01:53:33;17.80;99.90
39017;DHT22;24784;45.582;5.276;2023-09-19T01:56:01;17.80;99.90
39017;DHT22;24784;45.582;5.276;2023-09-19T01:58:41;17.70;99.90
39017;DHT22;24784;45.582;5.276;2023-09-19T02:01:12;17.70;99.90
39017;DHT22;24784;45.582;5.276;2023-09-19T02:03:41;17.60;99.90
39017;DHT22;24784;45.582;5.276;2023-09-19T02:06:07;17.70;99.90
39017;DHT22;24784;45.582;5.276;2023-09-19T02:08:37;17.70;99.90
39017;DHT22;24784;45.582;5.276;2023-09-19T02:11:03;17.70;99.90
39017;DHT22;24784;45.582;5.276;2023-09-19T02:13:28;17.70;99.90
39017;DHT22;24784;45.582;5.276;2023-09-19T02:15:57;17.70;99.90
39017;DHT22;24784;45.582;5.276;2023-09-19T02:18:23;17.70;99.90
39017;DHT22;24784;45.582;5.276;2023-09-19T02:20:48;17.70;99.90
39017;DHT22;24784;45.582;5.276;2023-09-19T02:23:16;17.70;99.90
39017;DHT22;24784;45.582;5.276;2023-09-19T02:25:42;17.80;99.90
39017;DHT22;24784;45.582;5.276;2023-09-19T02:28:09;17.80;99.90
39017;DHT22;24784;45.582;5.276;2023-09-19T02:30:35;17.80;99.90
39017;DHT22;24784;45.582;5.276;2023-09-19T02:33:01;17.80;99.90
39017;DHT22;24784;45.582;5.276;2023-09-19T02:35:28;17.80;99.90
39017;DHT22;24784;45.582;5.276;2023-09-19T02:37:53;17.80;99.90
39017;DHT22;24784;45.582;5.276;2023-09-19T02:40:19;17.80;99.90
39017;DHT22;24784;45.582;5.276;2023-09-19T02:42:48;17.70;99.90
39017;DHT22;24784;45.582;5.276;2023-09-19T02:45:18;17.80;99.90
39017;DHT22;24784;45.582;5.276;2023-09-19T02:47:47;17.80;99.90
39017;DHT22;24784;45.582;5.276;2023-09-19T02:50:14;17.70;99.90
39017;DHT22;24784;45.582;5.276;2023-09-19T02:52:45;17.70;99.90
39017;DHT22;24784;45.582;5.276;2023-09-19T02:55:15;17.80;99.90
39017;DHT22;24784;45.582;5.276;2023-09-19T02:57:50;17.80;99.90
39017;DHT22;24784;45.582;5.276;2023-09-19T03:00:17;17.80;99.90
39017;DHT22;24784;45.582;5.276;2023-09-19T03:02:52;17.80;99.90
39017;DHT22;24784;45.582;5.276;2023-09-19T03:05:18;17.80;99.90
39017;DHT22;24784;45.582;5.276;2023-09-19T03:07:44;17.80;99.90
39017;DHT22;24784;45.582;5.276;2023-09-19T03:10:13;17.80;99.90
39017;DHT22;24784;45.582;5.276;2023-09-19T03:12:40;17.80;99.90
39017;DHT22;24784;45.582;5.276;2023-09-19T03:15:06;17.70;99.90
39017;DHT22;24784;45.582;5.276;2023-09-19T03:17:34;17.80;99.90
39017;DHT22;24784;45.582;5.276;2023-09-19T03:19:59;17.80;99.90
39017;DHT22;24784;45.582;5.276;2023-09-19T03:22:27;17.80;99.90
39017;DHT22;24784;45.582;5.276;2023-09-19T03:24:52;17.80;99.90
39017;DHT22;24784;45.582;5.276;2023-09-19T03:27:18;17.80;99.90
39017;DHT22;24784;45.582;5.276;2023-09-19T03:29:46;17.80;99.90
39017;DHT22;24784;45.582;5.276;2023-09-19T03:32:12;17.80;99.90
39017;DHT22;24784;45.582;5.276;2023-09-19T03:34:38;17.80;99.90
39017;DHT22;24784;45.582;5.276;2023-09-19T03:37:09;17.80;99.90
39017;DHT22;24784;45.582;5.276;2023-09-19T03:39:35;17.70;99.90
39017;DHT22;24784;45.582;5.276;2023-09-19T03:42:02;17.70;99.90
39017;DHT22;24784;45.582;5.276;2023-09-19T03:44:32;17.70;99.90
39017;DHT22;24784;45.582;5.276;2023-09-19T03:46:58;17.70;99.90
39017;DHT22;24784;45.582;5.276;2023-09-19T03:49:23;17.60;99.90
39017;DHT22;24784;45.582;5.276;2023-09-19T03:51:49;17.60;99.90
39017;DHT22;24784;45.582;5.276;2023-09-19T03:54:15;17.60;99.90
39017;DHT22;24784;45.582;5.276;2023-09-19T03:56:42;17.60;99.90
39017;DHT22;24784;45.582;5.276;2023-09-19T03:59:09;17.50;99.90
39017;DHT22;24784;45.582;5.276;2023-09-19T04:01:35;17.50;99.90
39017;DHT22;24784;45.582;5.276;2023-09-19T04:04:00;17.40;99.90
39017;DHT22;24784;45.582;5.276;2023-09-19T04:06:34;17.40;99.90
39017;DHT22;24784;45.582;5.276;2023-09-19T04:09:03;17.40;99.90
39017;DHT22;24784;45.582;5.276;2023-09-19T04:11:33;17.40;99.90
39017;DHT22;24784;45.582;5.276;2023-09-19T04:13:59;17.40;99.90
39017;DHT22;24784;45.582;5.276;2023-09-19T04:16:25;17.30;99.90
39017;DHT22;24784;45.582;5.276;2023-09-19T04:18:50;17.40;99.90
39017;DHT22;24784;45.582;5.276;2023-09-19T04:21:16;17.30;99.90
39017;DHT22;24784;45.582;5.276;2023-09-19T04:23:42;17.30;99.90
39017;DHT22;24784;45.582;5.276;2023-09-19T04:26:08;17.30;99.90
39017;DHT22;24784;45.582;5.276;2023-09-19T04:28:34;17.30;99.90
39017;DHT22;24784;45.582;5.276;2023-09-19T04:31:01;17.30;99.90
39017;DHT22;24784;45.582;5.276;2023-09-19T04:33:27;17.30;99.90
39017;DHT22;24784;45.582;5.276;2023-09-19T04:35:53;17.30;99.90
39017;DHT22;24784;45.582;5.276;2023-09-19T04:38:19;17.40;99.90
39017;DHT22;24784;45.582;5.276;2023-09-19T04:40:45;17.40;99.90
39017;DHT22;24784;45.582;5.276;2023-09-19T04:43:11;17.30;99.90
39017;DHT22;24784;45.582;5.276;2023-09-19T04:45:38;17.30;99.90
39017;DHT22;24784;45.582;5.276;2023-09-19T04:48:04;17.40;99.90
39017;DHT22;24784;45.582;5.276;2023-09-19T04:50:32;17.40;99.90
39017;DHT22;24784;45.582;5.276;2023-09-19T04:52:59;17.40;99.90
39017;DHT22;24784;45.582;5.276;2023-09-19T04:55:26;17.40;99.90
39017;DHT22;24784;45.582;5.276;2023-09-19T04:57:52;17.40;99.90
39017;DHT22;24784;45.582;5.276;2023-09-19T05:00:21;17.40;99.90
39017;DHT22;24784;45.582;5.276;2023-09-19T05:02:50;17.40;99.90
39017;DHT22;24784;45.582;5.276;2023-09-19T05:05:17;17.40;99.90
39017;DHT22;24784;45.582;5.276;2023-09-19T05:07:45;17.40;99.90
39017;DHT22;24784;45.582;5.276;2023-09-19T05:10:11;17.40;99.90
39017;DHT22;24784;45.582;5.276;2023-09-19T05:12:38;17.30;99.90
39017;DHT22;24784;45.582;5.276;2023-09-19T05:15:04;17.30;99.90
39017;DHT22;24784;45.582;5.276;2023-09-19T05:17:35;17.30;99.90
39017;DHT22;24784;45.582;5.276;2023-09-19T05:20:02;17.30;99.90
39017;DHT22;24784;45.582;5.276;2023-09-19T05:22:42;17.30;99.90
39017;DHT22;24784;45.582;5.276;2023-09-19T05:25:09;17.30;99.90
39017;DHT22;24784;45.582;5.276;2023-09-19T05:27:35;17.40;99.90
39017;DHT22;24784;45.582;5.276;2023-09-19T05:30:01;17.30;99.90
39017;DHT22;24784;45.582;5.276;2023-09-19T05:32:26;17.30;99.90
39017;DHT22;24784;45.582;5.276;2023-09-19T05:34:52;17.30;99.90
39017;DHT22;24784;45.582;5.276;2023-09-19T05:37:22;17.20;99.90
39017;DHT22;24784;45.582;5.276;2023-09-19T05:39:49;17.20;99.90
39017;DHT22;24784;45.582;5.276;2023-09-19T05:42:14;17.20;99.90
39017;DHT22;24784;45.582;5.276;2023-09-19T05:44:40;17.20;99.90
39017;DHT22;24784;45.582;5.276;2023-09-19T05:47:06;17.20;99.90
39017;DHT22;24784;45.582;5.276;2023-09-19T05:49:37;17.30;99.90
39017;DHT22;24784;45.582;5.276;2023-09-19T05:52:06;17.20;99.90
39017;DHT22;24784;45.582;5.276;2023-09-19T05:54:32;17.20;99.90
39017;DHT22;24784;45.582;5.276;2023-09-19T05:57:00;17.10;99.90
39017;DHT22;24784;45.582;5.276;2023-09-19T05:59:25;17.10;99.90
39017;DHT22;24784;45.582;5.276;2023-09-19T06:01:51;17.10;99.90
39017;DHT22;24784;45.582;5.276;2023-09-19T06:04:17;17.10;99.90
39017;DHT22;24784;45.582;5.276;2023-09-19T06:06:45;17.10;99.90
39017;DHT22;24784;45.582;5.276;2023-09-19T06:09:10;17.00;99.90
39017;DHT22;24784;45.582;5.276;2023-09-19T06:11:36;17.00;99.90
39017;DHT22;24784;45.582;5.276;2023-09-19T06:14:03;17.00;99.90
39017;DHT22;24784;45.582;5.276;2023-09-19T06:16:29;17.10;99.90
39017;DHT22;24784;45.582;5.276;2023-09-19T06:18:55;17.10;99.90
39017;DHT22;24784;45.582;5.276;2023-09-19T06:21:24;17.00;99.90
39017;DHT22;24784;45.582;5.276;2023-09-19T06:23:50;17.00;99.90
39017;DHT22;24784;45.582;5.276;2023-09-19T06:26:16;17.00;99.90
39017;DHT22;24784;45.582;5.276;2023-09-19T06:28:42;17.00;99.90
39017;DHT22;24784;45.582;5.276;2023-09-19T06:31:09;17.00;99.90
39017;DHT22;24784;45.582;5.276;2023-09-19T06:33:38;16.90;99.90
39017;DHT22;24784;45.582;5.276;2023-09-19T06:36:05;17.00;99.90
39017;DHT22;24784;45.582;5.276;2023-09-19T06:38:31;16.90;99.90
39017;DHT22;24784;45.582;5.276;2023-09-19T06:41:00;16.90;99.90
39017;DHT22;24784;45.582;5.276;2023-09-19T06:43:27;16.90;99.90
39017;DHT22;24784;45.582;5.276;2023-09-19T06:45:54;17.00;99.90
39017;DHT22;24784;45.582;5.276;2023-09-19T06:48:20;16.90;99.90
39017;DHT22;24784;45.582;5.276;2023-09-19T06:50:46;16.90;99.90
39017;DHT22;24784;45.582;5.276;2023-09-19T06:53:13;16.80;99.90
39017;DHT22;24784;45.582;5.276;2023-09-19T06:55:39;16.90;99.90
39017;DHT22;24784;45.582;5.276;2023-09-19T06:58:05;16.90;99.90
39017;DHT22;24784;45.582;5.276;2023-09-19T07:00:31;17.00;99.90
39017;DHT22;24784;45.582;5.276;2023-09-19T07:03:06;17.00;99.90
39017;DHT22;24784;45.582;5.276;2023-09-19T07:05:37;17.00;99.90
39017;DHT22;24784;45.582;5.276;2023-09-19T07:08:08;17.10;99.90
39017;DHT22;24784;45.582;5.276;2023-09-19T07:10:38;17.10;99.90
39017;DHT22;24784;45.582;5.276;2023-09-19T07:13:07;17.10;99.90
39017;DHT22;24784;45.582;5.276;2023-09-19T07:15:36;17.10;99.90
39017;DHT22;24784;45.582;5.276;2023-09-19T07:18:05;17.10;99.90
39017;DHT22;24784;45.582;5.276;2023-09-19T07:20:31;17.20;99.90
39017;DHT22;24784;45.582;5.276;2023-09-19T07:22:58;17.10;99.90
39017;DHT22;24784;45.582;5.276;2023-09-19T07:25:27;17.20;99.90
39017;DHT22;24784;45.582;5.276;2023-09-19T07:27:57;17.20;99.90
39017;DHT22;24784;45.582;5.276;2023-09-19T07:30:25;17.20;99.90
39017;DHT22;24784;45.582;5.276;2023-09-19T07:32:52;17.30;99.90
39017;DHT22;24784;45.582;5.276;2023-09-19T07:35:18;17.30;99.90
39017;DHT22;24784;45.582;5.276;2023-09-19T07:37:46;17.30;99.90
39017;DHT22;24784;45.582;5.276;2023-09-19T07:40:16;17.30;99.90
39017;DHT22;24784;45.582;5.276;2023-09-19T07:42:42;17.40;99.90
39017;DHT22;24784;45.582;5.276;2023-09-19T07:45:10;17.40;99.90
39017;DHT22;24784;45.582;5.276;2023-09-19T07:47:43;17.50;99.90
39017;DHT22;24784;45.582;5.276;2023-09-19T07:50:09;17.50;99.90
39017;DHT22;24784;45.582;5.276;2023-09-19T07:52:35;17.50;99.90
39017;DHT22;24784;45.582;5.276;2023-09-19T07:55:00;17.60;99.90
39017;DHT22;24784;45.582;5.276;2023-09-19T07:57:31;17.70;99.90
39017;DHT22;24784;45.582;5.276;2023-09-19T08:00:00;17.80;99.90
39017;DHT22;24784;45.582;5.276;2023-09-19T08:02:25;17.90;99.90
39017;DHT22;24784;45.582;5.276;2023-09-19T08:04:51;18.00;99.90
39017;DHT22;24784;45.582;5.276;2023-09-19T08:07:17;18.00;99.90
39017;DHT22;24784;45.582;5.276;2023-09-19T08:09:43;18.00;99.90
39017;DHT22;24784;45.582;5.276;2023-09-19T08:12:14;18.10;99.90
39017;DHT22;24784;45.582;5.276;2023-09-19T08:14:40;18.20;99.90
39017;DHT22;24784;45.582;5.276;2023-09-19T08:17:09;18.20;99.90
39017;DHT22;24784;45.582;5.276;2023-09-19T08:19:34;18.30;99.90
39017;DHT22;24784;45.582;5.276;2023-09-19T08:22:01;18.30;99.90
39017;DHT22;24784;45.582;5.276;2023-09-19T08:24:28;18.40;99.90
39017;DHT22;24784;45.582;5.276;2023-09-19T08:26:55;18.40;99.90
39017;DHT22;24784;45.582;5.276;2023-09-19T08:29:21;18.40;99.90
39017;DHT22;24784;45.582;5.276;2023-09-19T08:31:54;18.40;99.90
39017;DHT22;24784;45.582;5.276;2023-09-19T08:34:19;18.40;99.90
39017;DHT22;24784;45.582;5.276;2023-09-19T08:36:46;18.40;99.90
39017;DHT22;24784;45.582;5.276;2023-09-19T08:39:13;18.40;99.90
39017;DHT22;24784;45.582;5.276;2023-09-19T08:41:39;18.40;99.90
39017;DHT22;24784;45.582;5.276;2023-09-19T08:44:05;18.50;99.90
39017;DHT22;24784;45.582;5.276;2023-09-19T08:46:34;18.60;99.90
39017;DHT22;24784;45.582;5.276;2023-09-19T08:49:05;18.70;99.90
39017;DHT22;24784;45.582;5.276;2023-09-19T08:51:45;18.80;99.90
39017;DHT22;24784;45.582;5.276;2023-09-19T08:54:25;18.80;99.90
39017;DHT22;24784;45.582;5.276;2023-09-19T08:56:56;18.70;99.90
39017;DHT22;24784;45.582;5.276;2023-09-19T08:59:25;18.80;99.90
39017;DHT22;24784;45.582;5.276;2023-09-19T09:01:55;18.80;99.90
39017;DHT22;24784;45.582;5.276;2023-09-19T09:04:22;18.80;99.90
39017;DHT22;24784;45.582;5.276;2023-09-19T09:06:49;18.80;99.90
39017;DHT22;24784;45.582;5.276;2023-09-19T09:09:19;18.90;99.90
39017;DHT22;24784;45.582;5.276;2023-09-19T09:11:45;19.00;99.90
39017;DHT22;24784;45.582;5.276;2023-09-19T09:14:13;19.10;99.90
39017;DHT22;24784;45.582;5.276;2023-09-19T09:16:39;19.40;99.90
39017;DHT22;24784;45.582;5.276;2023-09-19T09:19:05;19.50;99.90
39017;DHT22;24784;45.582;5.276;2023-09-19T09:21:31;19.40;99.90
39017;DHT22;24784;45.582;5.276;2023-09-19T09:24:27;19.50;99.90
39017;DHT22;24784;45.582;5.276;2023-09-19T09:26:55;19.50;99.90
39017;DHT22;24784;45.582;5.276;2023-09-19T09:29:48;19.40;99.90
39017;DHT22;24784;45.582;5.276;2023-09-19T09:32:30;19.50;99.90
39017;DHT22;24784;45.582;5.276;2023-09-19T09:35:00;19.30;99.90
39017;DHT22;24784;45.582;5.276;2023-09-19T09:37:28;19.30;99.90
39017;DHT22;24784;45.582;5.276;2023-09-19T09:40:00;19.30;99.90
39017;DHT22;24784;45.582;5.276;2023-09-19T09:42:45;19.30;99.90
39017;DHT22;24784;45.582;5.276;2023-09-19T09:45:26;19.20;99.90
39017;DHT22;24784;45.582;5.276;2023-09-19T09:47:58;19.20;99.90
39017;DHT22;24784;45.582;5.276;2023-09-19T09:50:33;19.10;99.90
39017;DHT22;24784;45.582;5.276;2023-09-19T09:53:28;19.10;99.90
39017;DHT22;24784;45.582;5.276;2023-09-19T09:56:04;19.00;99.90
39017;DHT22;24784;45.582;5.276;2023-09-19T09:58:34;19.10;99.90
39017;DHT22;24784;45.582;5.276;2023-09-19T10:01:04;19.50;99.90
39017;DHT22;24784;45.582;5.276;2023-09-19T10:03:38;19.80;99.90
39017;DHT22;24784;45.582;5.276;2023-09-19T10:06:14;19.80;99.90
39017;DHT22;24784;45.582;5.276;2023-09-19T10:11:44;19.50;99.90
39017;DHT22;24784;45.582;5.276;2023-09-19T10:14:20;19.40;99.90
39017;DHT22;24784;45.582;5.276;2023-09-19T10:16:49;19.40;99.90
39017;DHT22;24784;45.582;5.276;2023-09-19T10:19:24;19.60;99.90
39017;DHT22;24784;45.582;5.276;2023-09-19T10:21:56;20.00;99.90
39017;DHT22;24784;45.582;5.276;2023-09-19T10:24:24;20.20;99.90
39017;DHT22;24784;45.582;5.276;2023-09-19T10:26:52;20.20;99.90
39017;DHT22;24784;45.582;5.276;2023-09-19T10:29:21;20.20;99.90
39017;DHT22;24784;45.582;5.276;2023-09-19T10:31:47;20.30;99.90
39017;DHT22;24784;45.582;5.276;2023-09-19T10:34:17;20.20;99.90
39017;DHT22;24784;45.582;5.276;2023-09-19T10:36:46;20.30;99.90
39017;DHT22;24784;45.582;5.276;2023-09-19T10:39:16;20.30;99.90
39017;DHT22;24784;45.582;5.276;2023-09-19T10:41:50;20.30;99.90
39017;DHT22;24784;45.582;5.276;2023-09-19T10:44:24;20.50;99.90
39017;DHT22;24784;45.582;5.276;2023-09-19T10:46:51;20.70;99.90
39017;DHT22;24784;45.582;5.276;2023-09-19T10:49:19;20.80;99.90
39017;DHT22;24784;45.582;5.276;2023-09-19T10:51:45;20.80;99.90
39017;DHT22;24784;45.582;5.276;2023-09-19T10:54:14;20.90;99.90
39017;DHT22;24784;45.582;5.276;2023-09-19T10:56:49;20.90;99.90
39017;DHT22;24784;45.582;5.276;2023-09-19T10:59:20;20.80;99.90
39017;DHT22;24784;45.582;5.276;2023-09-19T11:01:50;20.80;99.90
39017;DHT22;24784;45.582;5.276;2023-09-19T11:04:31;20.90;99.90
39017;DHT22;24784;45.582;5.276;2023-09-19T11:09:50;21.10;99.50
39017;DHT22;24784;45.582;5.276;2023-09-19T11:15:01;20.80;99.90
39017;DHT22;24784;45.582;5.276;2023-09-19T11:17:42;20.80;99.30
39017;DHT22;24784;45.582;5.276;2023-09-19T11:30:39;20.50;99.90
39017;DHT22;24784;45.582;5.276;2023-09-19T11:43:50;20.80;98.70
39017;DHT22;24784;45.582;5.276;2023-09-19T11:46:17;20.80;98.60
39017;DHT22;24784;45.582;5.276;2023-09-19T11:48:48;20.90;99.00
39017;DHT22;24784;45.582;5.276;2023-09-19T11:51:19;21.00;99.70
39017;DHT22;24784;45.582;5.276;2023-09-19T11:53:55;21.20;99.00
39017;DHT22;24784;45.582;5.276;2023-09-19T11:56:23;21.40;98.30
39017;DHT22;24784;45.582;5.276;2023-09-19T11:58:54;21.50;98.40
39017;DHT22;24784;45.582;5.276;2023-09-19T12:01:31;21.50;98.30
39017;DHT22;24784;45.582;5.276;2023-09-19T12:03:58;21.50;98.10
39017;DHT22;24784;45.582;5.276;2023-09-19T12:06:28;21.60;97.10
39017;DHT22;24784;45.582;5.276;2023-09-19T12:08:58;21.50;96.80
39017;DHT22;24784;45.582;5.276;2023-09-19T12:11:30;21.60;97.20
39017;DHT22;24784;45.582;5.276;2023-09-19T12:13:59;21.70;97.60
39017;DHT22;24784;45.582;5.276;2023-09-19T12:16:26;21.60;96.50
39017;DHT22;24784;45.582;5.276;2023-09-19T12:18:56;21.50;96.60
39017;DHT22;24784;45.582;5.276;2023-09-19T12:21:27;21.50;96.50
39017;DHT22;24784;45.582;5.276;2023-09-19T12:24:06;21.50;96.90
39017;DHT22;24784;45.582;5.276;2023-09-19T12:26:41;21.50;97.00
39017;DHT22;24784;45.582;5.276;2023-09-19T12:29:12;21.60;96.40
39017;DHT22;24784;45.582;5.276;2023-09-19T12:31:56;21.70;95.80
39017;DHT22;24784;45.582;5.276;2023-09-19T12:34:30;21.70;96.20
39017;DHT22;24784;45.582;5.276;2023-09-19T12:37:12;21.50;96.00
39017;DHT22;24784;45.582;5.276;2023-09-19T12:39:42;21.40;94.80
39017;DHT22;24784;45.582;5.276;2023-09-19T12:42:10;21.30;95.20
39017;DHT22;24784;45.582;5.276;2023-09-19T12:44:41;21.30;95.00
39017;DHT22;24784;45.582;5.276;2023-09-19T12:47:13;21.40;96.00
39017;DHT22;24784;45.582;5.276;2023-09-19T12:50:14;21.50;95.30
39017;DHT22;24784;45.582;5.276;2023-09-19T12:52:47;21.50;95.70
39017;DHT22;24784;45.582;5.276;2023-09-19T12:55:26;21.50;96.00
39017;DHT22;24784;45.582;5.276;2023-09-19T12:58:21;21.50;96.50
39017;DHT22;24784;45.582;5.276;2023-09-19T13:00:47;21.50;94.80
39017;DHT22;24784;45.582;5.276;2023-09-19T13:03:24;21.50;95.30
39017;DHT22;24784;45.582;5.276;2023-09-19T13:06:01;21.60;95.30
39017;DHT22;24784;45.582;5.276;2023-09-19T13:08:34;21.50;95.00
39017;DHT22;24784;45.582;5.276;2023-09-19T13:13:39;21.70;95.00
39017;DHT22;24784;45.582;5.276;2023-09-19T13:16:05;21.70;95.40
39017;DHT22;24784;45.582;5.276;2023-09-19T13:18:44;21.70;96.00
39017;DHT22;24784;45.582;5.276;2023-09-19T13:21:13;21.80;94.70
39017;DHT22;24784;45.582;5.276;2023-09-19T13:23:53;21.90;94.50
39017;DHT22;24784;45.582;5.276;2023-09-19T13:26:22;21.90;93.70
39017;DHT22;24784;45.582;5.276;2023-09-19T13:28:48;21.90;94.60
39017;DHT22;24784;45.582;5.276;2023-09-19T13:31:14;21.80;93.50
39017;DHT22;24784;45.582;5.276;2023-09-19T13:33:44;21.90;93.60
39017;DHT22;24784;45.582;5.276;2023-09-19T13:36:11;21.90;93.40
39017;DHT22;24784;45.582;5.276;2023-09-19T13:38:39;22.00;93.40
39017;DHT22;24784;45.582;5.276;2023-09-19T13:41:05;22.20;93.40
39017;DHT22;24784;45.582;5.276;2023-09-19T13:43:32;22.20;92.50
39017;DHT22;24784;45.582;5.276;2023-09-19T13:45:58;22.20;91.80
39017;DHT22;24784;45.582;5.276;2023-09-19T13:48:24;22.10;92.10
39017;DHT22;24784;45.582;5.276;2023-09-19T13:50:49;22.30;91.00
39017;DHT22;24784;45.582;5.276;2023-09-19T13:53:15;22.40;90.70
39017;DHT22;24784;45.582;5.276;2023-09-19T13:55:42;22.50;91.20
39017;DHT22;24784;45.582;5.276;2023-09-19T13:58:08;22.50;90.80
39017;DHT22;24784;45.582;5.276;2023-09-19T14:00:36;22.50;90.90
39017;DHT22;24784;45.582;5.276;2023-09-19T14:03:02;22.40;89.30
39017;DHT22;24784;45.582;5.276;2023-09-19T14:05:30;22.40;89.70
39017;DHT22;24784;45.582;5.276;2023-09-19T14:07:56;22.50;90.00
39017;DHT22;24784;45.582;5.276;2023-09-19T14:10:22;22.50;90.30
39017;DHT22;24784;45.582;5.276;2023-09-19T14:12:49;22.50;90.20
39017;DHT22;24784;45.582;5.276;2023-09-19T14:15:15;22.50;88.40
39017;DHT22;24784;45.582;5.276;2023-09-19T14:17:40;22.70;88.10
39017;DHT22;24784;45.582;5.276;2023-09-19T14:20:11;22.70;88.30
39017;DHT22;24784;45.582;5.276;2023-09-19T14:22:37;22.80;88.20
39017;DHT22;24784;45.582;5.276;2023-09-19T14:25:04;22.80;87.40
39017;DHT22;24784;45.582;5.276;2023-09-19T14:27:30;22.80;85.90
39017;DHT22;24784;45.582;5.276;2023-09-19T14:29:55;22.80;85.70
39017;DHT22;24784;45.582;5.276;2023-09-19T14:32:23;22.80;85.50
39017;DHT22;24784;45.582;5.276;2023-09-19T14:34:48;22.80;85.60
39017;DHT22;24784;45.582;5.276;2023-09-19T14:37:15;22.90;85.30
39017;DHT22;24784;45.582;5.276;2023-09-19T14:39:42;22.90;86.10
39017;DHT22;24784;45.582;5.276;2023-09-19T14:42:10;22.80;85.20
39017;DHT22;24784;45.582;5.276;2023-09-19T14:44:36;22.90;88.10
39017;DHT22;24784;45.582;5.276;2023-09-19T14:47:03;22.90;86.00
39017;DHT22;24784;45.582;5.276;2023-09-19T14:49:33;23.00;85.80
39017;DHT22;24784;45.582;5.276;2023-09-19T14:52:00;23.10;86.90
39017;DHT22;24784;45.582;5.276;2023-09-19T14:54:29;23.00;85.90
39017;DHT22;24784;45.582;5.276;2023-09-19T14:56:56;23.00;85.60
39017;DHT22;24784;45.582;5.276;2023-09-19T14:59:34;23.00;88.60
39017;DHT22;24784;45.582;5.276;2023-09-19T15:02:03;23.00;88.20
39017;DHT22;24784;45.582;5.276;2023-09-19T15:06:55;23.30;87.50
39017;DHT22;24784;45.582;5.276;2023-09-19T15:09:23;23.40;87.90
39017;DHT22;24784;45.582;5.276;2023-09-19T15:11:55;23.40;88.10
39017;DHT22;24784;45.582;5.276;2023-09-19T15:14:24;23.40;88.60
39017;DHT22;24784;45.582;5.276;2023-09-19T15:16:55;23.40;87.40
39017;DHT22;24784;45.582;5.276;2023-09-19T15:19:20;23.40;87.90
39017;DHT22;24784;45.582;5.276;2023-09-19T15:21:48;23.30;88.50
39017;DHT22;24784;45.582;5.276;2023-09-19T15:24:14;23.40;86.50
39017;DHT22;24784;45.582;5.276;2023-09-19T15:26:40;23.40;83.10
39017;DHT22;24784;45.582;5.276;2023-09-19T15:29:08;23.50;84.20
39017;DHT22;24784;45.582;5.276;2023-09-19T15:31:35;23.50;85.30
39017;DHT22;24784;45.582;5.276;2023-09-19T15:34:04;23.40;84.50
39017;DHT22;24784;45.582;5.276;2023-09-19T15:36:31;23.50;84.00
39017;DHT22;24784;45.582;5.276;2023-09-19T15:39:00;23.40;82.60
39017;DHT22;24784;45.582;5.276;2023-09-19T15:41:31;23.40;82.50
39017;DHT22;24784;45.582;5.276;2023-09-19T15:43:59;23.40;81.70
39017;DHT22;24784;45.582;5.276;2023-09-19T15:46:30;23.30;80.90
39017;DHT22;24784;45.582;5.276;2023-09-19T15:48:56;23.30;82.40
39017;DHT22;24784;45.582;5.276;2023-09-19T15:51:23;23.20;82.00
39017;DHT22;24784;45.582;5.276;2023-09-19T15:53:50;23.20;82.00
39017;DHT22;24784;45.582;5.276;2023-09-19T15:56:17;23.20;81.10
39017;DHT22;24784;45.582;5.276;2023-09-19T15:58:44;23.20;81.10
39017;DHT22;24784;45.582;5.276;2023-09-19T16:01:11;23.20;82.00
39017;DHT22;24784;45.582;5.276;2023-09-19T16:03:44;23.10;81.10
39017;DHT22;24784;45.582;5.276;2023-09-19T16:06:17;23.00;82.30
39017;DHT22;24784;45.582;5.276;2023-09-19T16:08:45;22.90;83.00
39017;DHT22;24784;45.582;5.276;2023-09-19T16:11:12;22.90;82.70
39017;DHT22;24784;45.582;5.276;2023-09-19T16:13:39;22.80;84.20
39017;DHT22;24784;45.582;5.276;2023-09-19T16:16:06;22.70;86.10
39017;DHT22;24784;45.582;5.276;2023-09-19T16:18:34;22.70;86.60
39017;DHT22;24784;45.582;5.276;2023-09-19T16:21:03;22.60;86.90
39017;DHT22;24784;45.582;5.276;2023-09-19T16:23:29;22.50;87.30
39017;DHT22;24784;45.582;5.276;2023-09-19T16:26:05;22.50;87.70
39017;DHT22;24784;45.582;5.276;2023-09-19T16:28:32;22.40;89.70